Time;durP1;ratioP1;P1;durP2;ratioP2;P2;SDS_P1;SDS_P2;PMS_P1;PMS_P2;Temp;Humidity;BMP_temperature;BMP_pressure;BME280_temperature;BME280_humidity;BME280_pressure;Samples;Min_cycle;Max_cycle;Signal;HPM_P1;HPM_P2
2023/05/10 00:01:56;;;;;;;4.68;3.30;;;;;;;9.61;73.40;95212.28;5045029;28;20116;-76
2023/05/10 00:04:21;;;;;;;5.00;4.20;;;;;;;9.65;73.46;95215.75;5044619;28;20479;-76
2023/05/10 00:06:47;;;;;;;5.15;3.92;;;;;;;9.71;73.19;95214.81;5043731;28;20036;-76
2023/05/10 00:09:13;;;;;;;4.88;3.72;;;;;;;9.78;72.94;95219.38;5044546;28;20091;-76
2023/05/10 00:11:39;;;;;;;6.38;4.60;;;;;;;9.65;73.20;95204.78;5042113;28;20028;-75
2023/05/10 00:14:04;;;;;;;5.13;4.07;;;;;;;9.59;73.07;95204.50;5045026;28;20074;-75
2023/05/10 00:16:30;;;;;;;6.20;4.82;;;;;;;9.41;73.63;95191.13;5043042;28;20025;-76
2023/05/10 00:18:55;;;;;;;7.68;5.50;;;;;;;9.45;73.28;95191.03;5043081;28;20148;-74
2023/05/10 00:21:20;;;;;;;5.88;5.00;;;;;;;9.36;73.68;95199.09;5043777;28;20025;-76
2023/05/10 00:23:46;;;;;;;7.10;5.97;;;;;;;9.34;73.36;95198.72;5043626;28;20021;-76
2023/05/10 00:26:11;;;;;;;9.38;6.35;;;;;;;9.19;73.44;95195.50;5043021;28;20464;-75
2023/05/10 00:28:37;;;;;;;7.50;6.53;;;;;;;9.27;73.59;95197.66;5043232;28;20025;-76
2023/05/10 00:31:02;;;;;;;8.50;7.05;;;;;;;9.32;73.32;95196.41;5042955;28;20029;-76
2023/05/10 00:33:27;;;;;;;8.27;7.07;;;;;;;9.41;72.60;95199.38;5043396;28;20021;-76
2023/05/10 00:35:53;;;;;;;7.45;6.60;;;;;;;9.21;72.45;95184.88;5045892;28;20052;-74
2023/05/10 00:38:18;;;;;;;8.23;7.05;;;;;;;9.04;73.65;95193.00;5041899;28;20151;-76
2023/05/10 00:40:44;;;;;;;7.22;6.47;;;;;;;9.08;73.44;95192.94;5044167;28;20052;-75
2023/05/10 00:43:09;;;;;;;8.05;6.82;;;;;;;9.01;73.65;95190.34;5044227;28;20017;-76
2023/05/10 00:45:36;;;;;;;7.85;6.82;;;;;;;9.02;73.29;95183.66;5042940;28;20029;-75
2023/05/10 00:48:03;;;;;;;8.05;6.70;;;;;;;8.87;73.98;95185.13;5042738;28;20025;-75
2023/05/10 00:50:28;;;;;;;9.00;7.72;;;;;;;9.01;73.95;95184.88;5040508;28;20071;-75
2023/05/10 00:52:54;;;;;;;8.82;7.63;;;;;;;8.99;73.90;95182.53;5043055;28;20025;-75
2023/05/10 00:55:20;;;;;;;7.78;6.97;;;;;;;8.90;73.37;95178.81;5041781;28;20468;-75
2023/05/10 00:57:45;;;;;;;8.60;7.13;;;;;;;8.75;73.98;95176.31;5043084;28;20104;-76
2023/05/10 01:00:12;;;;;;;9.52;7.82;;;;;;;8.80;74.71;95177.81;5042252;28;20025;-76
2023/05/10 01:02:38;;;;;;;8.90;7.55;;;;;;;8.86;74.22;95184.34;5001747;28;1160033;-76
2023/05/10 01:05:05;;;;;;;11.02;8.10;;;;;;;8.95;73.94;95186.56;5044907;28;20033;-76
2023/05/10 01:07:30;;;;;;;10.23;8.63;;;;;;;8.86;73.76;95178.09;5043611;28;20511;-75
2023/05/10 01:09:56;;;;;;;10.00;7.97;;;;;;;8.98;74.04;95180.22;5043685;28;20499;-75
2023/05/10 01:12:21;;;;;;;9.30;8.35;;;;;;;8.93;73.78;95181.47;5042364;28;20106;-76
2023/05/10 01:14:47;;;;;;;9.15;7.95;;;;;;;8.80;73.93;95180.53;5043680;28;20484;-76
2023/05/10 01:17:13;;;;;;;9.75;8.15;;;;;;;8.83;73.93;95173.44;5042493;28;20541;-76
2023/05/10 01:19:39;;;;;;;10.02;7.72;;;;;;;8.76;74.21;95174.34;5042913;28;20036;-76
2023/05/10 01:22:42;;;;;;;9.32;7.88;;;;;;;8.89;74.38;95174.50;5043276;28;20025;-76
2023/05/10 01:25:40;;;;;;;10.67;8.37;;;;;;;8.70;74.09;95165.81;5043594;28;20064;-74
2023/05/10 01:28:25;;;;;;;9.63;7.63;;;;;;;8.74;74.00;95166.53;5043499;28;20598;-75
2023/05/10 01:31:18;;;;;;;9.38;7.90;;;;;;;8.58;74.66;95163.69;5050297;28;20378;-75
2023/05/10 01:33:52;;;;;;;7.47;6.78;;;;;;;8.51;74.40;95164.59;5025574;28;20028;-75
2023/05/10 01:36:26;;;;;;;9.48;7.28;;;;;;;8.38;74.84;95160.16;5043654;28;20037;-75
2023/05/10 01:39:01;;;;;;;9.27;7.88;;;;;;;8.57;74.67;95155.91;5042772;28;20035;-75
2023/05/10 01:41:54;;;;;;;7.43;6.57;;;;;;;8.38;73.67;95121.78;5042779;28;20033;-75
2023/05/10 01:44:29;;;;;;;8.02;6.82;;;;;;;8.59;73.92;95154.28;5043241;28;20028;-75
2023/05/10 01:47:04;;;;;;;7.13;6.15;;;;;;;8.41;73.90;95138.16;5025513;28;20118;-74
2023/05/10 01:49:32;;;;;;;8.13;7.00;;;;;;;8.51;73.85;95134.47;5043184;28;20025;-74
2023/05/10 01:52:07;;;;;;;6.68;5.97;;;;;;;8.32;74.36;95150.81;5043838;28;20377;-75
2023/05/10 01:54:33;;;;;;;9.35;7.55;;;;;;;8.35;74.15;95144.50;5042175;28;20636;-75
2023/05/10 01:57:04;;;;;;;9.77;6.88;;;;;;;8.09;74.36;95141.41;5026467;28;20028;-75
2023/05/10 01:59:36;;;;;;;7.55;6.53;;;;;;;8.38;74.06;95154.66;5041992;28;20029;-74
2023/05/10 02:02:01;;;;;;;7.35;6.43;;;;;;;8.42;73.32;95147.13;5046516;28;20052;-74
2023/05/10 02:04:27;;;;;;;7.07;5.97;;;;;;;8.40;73.35;95144.81;5045493;28;20029;-74
2023/05/10 02:06:53;;;;;;;7.00;6.30;;;;;;;8.47;73.31;95143.94;5047791;28;20365;-74
2023/05/10 02:09:20;;;;;;;6.93;5.80;;;;;;;8.51;72.99;95155.59;5046028;28;20060;-74
2023/05/10 02:11:47;;;;;;;7.40;5.70;;;;;;;8.48;73.27;95143.50;5045567;28;20522;-74
2023/05/10 02:14:14;;;;;;;6.07;5.47;;;;;;;8.48;72.67;95150.94;5029700;28;20078;-74
2023/05/10 02:16:40;;;;;;;5.65;5.05;;;;;;;8.46;72.64;95151.38;5027820;28;20422;-74
2023/05/10 02:19:08;;;;;;;8.80;6.07;;;;;;;8.57;72.87;95159.41;5029659;28;20061;-73
2023/05/10 02:21:34;;;;;;;6.65;5.72;;;;;;;8.62;72.84;95156.19;5045145;28;20101;-74
2023/05/10 02:24:01;;;;;;;5.47;4.97;;;;;;;8.35;72.45;95150.75;5047300;28;20037;-74
2023/05/10 02:26:27;;;;;;;6.75;5.57;;;;;;;8.40;72.61;95144.81;5031141;28;20457;-74
2023/05/10 02:28:54;;;;;;;5.95;5.35;;;;;;;8.22;72.69;95145.09;5029101;28;20024;-74
2023/05/10 02:31:20;;;;;;;8.48;5.15;;;;;;;8.33;71.47;95150.41;5046088;28;20500;-74
2023/05/10 02:33:46;;;;;;;5.60;5.00;;;;;;;8.30;71.08;95147.72;5044937;28;20017;-75
2023/05/10 02:36:12;;;;;;;5.63;4.82;;;;;;;8.14;70.64;95148.34;5046170;28;20453;-75
2023/05/10 02:38:38;;;;;;;5.25;4.57;;;;;;;8.07;70.28;95140.25;5044689;28;20089;-75
2023/05/10 02:41:05;;;;;;;5.80;4.80;;;;;;;8.05;70.01;95157.09;5045948;28;20021;-74
2023/05/10 02:43:32;;;;;;;6.25;4.53;;;;;;;7.90;70.84;95137.38;5045497;28;20028;-74
2023/05/10 02:45:57;;;;;;;5.47;4.82;;;;;;;7.92;70.28;95148.72;5028923;28;20449;-74
2023/05/10 02:48:23;;;;;;;6.70;4.65;;;;;;;7.86;69.81;95158.56;5045404;28;20025;-75
2023/05/10 02:50:51;;;;;;;7.13;5.57;;;;;;;7.62;70.32;95146.00;5044617;28;20037;-75
2023/05/10 02:53:20;;;;;;;5.63;4.88;;;;;;;7.65;69.89;95145.19;5045832;28;20397;-74
2023/05/10 02:55:51;;;;;;;6.03;4.43;;;;;;;7.52;68.96;95160.63;5027482;28;20106;-75
2023/05/10 02:58:19;;;;;;;7.82;4.90;;;;;;;7.49;68.82;95153.22;5029310;28;20102;-75
2023/05/10 03:00:45;;;;;;;6.82;4.38;;;;;;;7.30;67.69;95138.25;5045910;28;20032;-75
2023/05/10 03:03:10;;;;;;;6.85;4.75;;;;;;;7.39;68.13;95150.22;5046892;28;20102;-74
2023/05/10 03:05:35;;;;;;;5.63;4.32;;;;;;;7.32;67.43;95149.53;5046462;28;20025;-73
2023/05/10 03:08:03;;;;;;;7.00;4.80;;;;;;;7.31;68.12;95151.50;5046178;28;20036;-75
2023/05/10 03:10:29;;;;;;;6.65;4.07;;;;;;;7.21;67.81;95152.41;5029029;28;20092;-74
2023/05/10 03:13:19;;;;;;;5.60;3.97;;;;;;;7.16;67.02;95148.16;5026479;28;20052;-74
2023/05/10 03:15:48;;;;;;;6.45;4.28;;;;;;;7.17;67.03;95155.19;5028935;28;20037;-74
2023/05/10 03:18:28;;;;;;;6.40;4.55;;;;;;;7.19;67.98;95155.56;5044586;28;20568;-74
2023/05/10 03:21:05;;;;;;;7.20;5.28;;;;;;;7.22;68.23;95167.63;5050574;28;20029;-74
2023/05/10 03:23:35;;;;;;;5.63;4.70;;;;;;;7.18;68.49;95164.19;5045129;28;20059;-75
2023/05/10 03:26:01;;;;;;;5.32;4.35;;;;;;;7.30;68.40;95168.31;5043771;28;20025;-74
2023/05/10 03:28:27;;;;;;;7.85;5.22;;;;;;;7.41;68.62;95164.28;5045242;28;20399;-73
2023/05/10 03:30:53;;;;;;;6.55;5.38;;;;;;;7.44;68.60;95170.88;5043842;28;20098;-75
2023/05/10 03:33:19;;;;;;;7.53;5.88;;;;;;;7.47;68.61;95169.28;5028723;28;20017;-74
2023/05/10 03:35:45;;;;;;;7.05;5.97;;;;;;;7.52;68.66;95166.88;5045840;28;20025;-75
2023/05/10 03:38:11;;;;;;;8.77;5.45;;;;;;;7.55;68.14;95157.81;5045478;28;20529;-74
2023/05/10 03:40:37;;;;;;;5.75;4.55;;;;;;;7.47;67.95;95164.59;5044750;28;20025;-74
2023/05/10 03:43:02;;;;;;;8.27;4.53;;;;;;;7.47;67.24;95164.59;5043516;28;20089;-73
2023/05/10 03:45:28;;;;;;;7.55;5.25;;;;;;;7.53;68.12;95168.41;5044719;28;20025;-74
2023/05/10 03:47:53;;;;;;;8.13;5.38;;;;;;;7.62;67.15;95170.63;5044965;28;20395;-73
2023/05/10 03:50:19;;;;;;;7.97;5.47;;;;;;;7.67;66.39;95173.69;5045209;28;20020;-74
2023/05/10 03:52:45;;;;;;;6.05;5.07;;;;;;;7.69;65.94;95178.75;5043871;28;20024;-74
2023/05/10 03:55:10;;;;;;;8.15;5.30;;;;;;;7.66;66.18;95187.78;5045735;28;20492;-74
2023/05/10 03:57:36;;;;;;;6.70;5.70;;;;;;;7.64;65.53;95188.19;5044413;28;20017;-74
2023/05/10 04:00:02;;;;;;;7.60;4.90;;;;;;;7.65;65.78;95180.75;5026642;28;20031;-74
2023/05/10 04:02:29;;;;;;;6.88;5.80;;;;;;;7.71;66.83;95185.34;5044390;28;20080;-75
2023/05/10 04:04:55;;;;;;;8.52;5.70;;;;;;;7.71;66.27;95190.84;5026971;28;20439;-75
2023/05/10 04:07:20;;;;;;;6.20;4.80;;;;;;;7.70;66.17;95194.75;5045899;28;20027;-74
2023/05/10 04:09:45;;;;;;;7.10;5.35;;;;;;;7.72;66.28;95189.63;5044985;28;20032;-74
2023/05/10 04:12:11;;;;;;;6.82;5.50;;;;;;;7.70;66.56;95183.03;5027852;28;20598;-74
2023/05/10 04:14:37;;;;;;;8.90;5.57;;;;;;;7.68;66.71;95188.13;5049955;28;20032;-75
2023/05/10 04:17:02;;;;;;;7.85;5.38;;;;;;;7.60;66.95;95186.69;5043998;28;20471;-75
2023/05/10 04:19:31;;;;;;;9.73;6.03;;;;;;;7.58;67.04;95189.06;5027789;28;20025;-74
2023/05/10 04:21:57;;;;;;;8.02;5.30;;;;;;;7.57;67.00;95201.19;5043129;28;20138;-75
2023/05/10 04:24:23;;;;;;;7.53;5.20;;;;;;;7.53;66.52;95197.72;5027026;28;20041;-74
2023/05/10 04:26:48;;;;;;;7.18;5.05;;;;;;;7.60;66.43;95187.47;5044789;28;20029;-74
2023/05/10 04:29:13;;;;;;;7.30;5.43;;;;;;;7.58;66.32;95197.28;5045698;28;20124;-74
2023/05/10 04:31:39;;;;;;;9.85;5.75;;;;;;;7.48;66.59;95201.69;5044819;28;20060;-74
2023/05/10 04:34:04;;;;;;;6.32;4.80;;;;;;;7.52;66.69;95196.97;5044359;28;20024;-74
2023/05/10 04:36:30;;;;;;;6.20;4.78;;;;;;;7.26;67.04;95203.91;5045299;28;20021;-75
2023/05/10 04:38:55;;;;;;;7.50;5.47;;;;;;;7.41;67.16;95199.81;5042988;28;20407;-75
2023/05/10 04:41:21;;;;;;;6.88;4.88;;;;;;;7.55;67.74;95196.13;5043617;28;20086;-74
2023/05/10 04:43:48;;;;;;;8.05;4.90;;;;;;;7.56;66.83;95194.94;5043111;28;20463;-73
2023/05/10 04:46:14;;;;;;;7.15;5.15;;;;;;;7.55;66.81;95206.28;5045174;28;20028;-73
2023/05/10 04:48:39;;;;;;;7.85;5.45;;;;;;;7.49;66.82;95197.78;5044194;28;20044;-73
2023/05/10 04:51:06;;;;;;;7.43;5.68;;;;;;;7.37;66.62;95204.56;5045312;28;20434;-73
2023/05/10 04:53:31;;;;;;;9.85;5.30;;;;;;;7.45;66.97;95197.84;5044536;28;20058;-73
2023/05/10 04:55:57;;;;;;;6.25;5.32;;;;;;;7.56;66.64;95210.56;5043743;28;20411;-73
2023/05/10 04:58:22;;;;;;;7.15;5.47;;;;;;;7.40;67.18;95200.25;5043701;28;20029;-73
2023/05/10 05:00:48;;;;;;;5.95;5.35;;;;;;;7.60;66.94;95203.88;5026296;28;20068;-73
2023/05/10 05:03:13;;;;;;;6.40;5.20;;;;;;;7.72;65.91;95206.06;5043675;28;20044;-73
2023/05/10 05:05:39;;;;;;;7.53;5.40;;;;;;;7.69;66.92;95195.94;5042502;28;20107;-73
2023/05/10 05:08:04;;;;;;;7.38;5.60;;;;;;;7.75;65.80;95200.97;5044079;28;20091;-74
2023/05/10 05:10:30;;;;;;;7.95;5.22;;;;;;;7.67;66.53;95205.75;5046744;28;20052;-73
2023/05/10 05:12:55;;;;;;;7.82;5.85;;;;;;;7.69;67.05;95211.59;5045243;28;20028;-73
2023/05/10 05:15:21;;;;;;;6.85;5.60;;;;;;;7.77;67.09;95206.78;5044276;28;20090;-75
2023/05/10 05:17:47;;;;;;;9.23;6.03;;;;;;;7.73;66.90;95204.09;5043935;28;20031;-73
2023/05/10 05:20:14;;;;;;;10.82;7.13;;;;;;;7.84;67.34;95207.47;5045185;28;20025;-80
2023/05/10 05:22:40;;;;;;;8.65;6.25;;;;;;;7.94;66.06;95206.53;5009625;28;20083;-77
2023/05/10 05:25:05;;;;;;;8.82;6.18;;;;;;;8.08;66.39;95211.03;5045025;28;20025;-77
2023/05/10 05:27:31;;;;;;;7.88;6.32;;;;;;;8.14;66.92;95205.84;5043127;28;20092;-76
2023/05/10 05:29:57;;;;;;;8.02;5.90;;;;;;;7.99;65.83;95222.50;5044204;28;20087;-77
2023/05/10 05:32:23;;;;;;;10.57;7.03;;;;;;;7.91;67.00;95217.53;5042524;28;20028;-77
2023/05/10 05:34:48;;;;;;;7.22;6.43;;;;;;;8.10;66.61;95214.16;5043186;28;20032;-76
2023/05/10 05:37:19;;;;;;;10.55;7.03;;;;;;;8.12;66.78;95224.69;5047243;28;20573;-77
2023/05/10 05:39:45;;;;;;;8.73;6.88;;;;;;;7.97;66.57;95221.34;5013159;28;20037;-78
2023/05/10 05:42:10;;;;;;;10.40;7.25;;;;;;;8.05;66.85;95225.56;5047012;28;20025;-76
2023/05/10 05:44:36;;;;;;;8.95;6.88;;;;;;;8.13;67.21;95221.50;5045693;28;20025;-76
2023/05/10 05:47:01;;;;;;;6.22;5.45;;;;;;;7.87;66.56;95225.03;5047445;28;20136;-75
2023/05/10 05:49:27;;;;;;;8.57;6.95;;;;;;;7.83;67.55;95230.56;5047507;28;20582;-75
2023/05/10 05:51:52;;;;;;;8.15;6.65;;;;;;;7.96;66.76;95228.78;5048535;28;20079;-76
2023/05/10 05:54:17;;;;;;;7.55;6.60;;;;;;;7.79;67.06;95229.81;5047892;28;20033;-76
2023/05/10 05:56:44;;;;;;;10.07;6.82;;;;;;;7.90;67.67;95230.44;5046085;28;20091;-75
2023/05/10 05:59:10;;;;;;;9.15;7.50;;;;;;;7.86;66.98;95237.94;5048456;28;20961;-78
2023/05/10 06:01:35;;;;;;;9.73;6.82;;;;;;;7.88;67.64;95221.13;5046764;28;20041;-75
2023/05/10 06:04:01;;;;;;;8.38;7.35;;;;;;;7.88;67.85;95238.31;5049723;28;20085;-74
2023/05/10 06:06:26;;;;;;;9.25;6.80;;;;;;;8.10;67.54;95238.00;5031752;28;20039;-74
2023/05/10 06:08:52;;;;;;;9.70;6.75;;;;;;;7.91;67.29;95226.53;5047036;28;20079;-76
2023/05/10 06:11:17;;;;;;;8.73;7.05;;;;;;;7.97;67.82;95252.28;5047158;28;20489;-76
2023/05/10 06:13:43;;;;;;;9.40;8.10;;;;;;;7.84;67.99;95253.22;5045968;28;20040;-75
2023/05/10 06:16:08;;;;;;;9.85;7.20;;;;;;;7.98;68.17;95242.09;5047872;28;20028;-76
2023/05/10 06:18:34;;;;;;;10.32;7.82;;;;;;;8.06;68.20;95240.78;5045336;28;20029;-76
2023/05/10 06:21:00;;;;;;;10.65;7.40;;;;;;;8.22;67.78;95246.44;5047932;28;20090;-75
2023/05/10 06:23:26;;;;;;;12.38;7.60;;;;;;;8.29;66.72;95247.50;5046644;28;20368;-75
2023/05/10 06:25:51;;;;;;;11.48;7.40;;;;;;;8.12;66.97;95246.59;5047725;28;20029;-77
2023/05/10 06:28:17;;;;;;;13.88;7.47;;;;;;;8.16;66.37;95244.56;5045873;28;20116;-75
2023/05/10 06:30:43;;;;;;;9.10;6.40;;;;;;;8.23;66.06;95250.72;5046396;28;20112;-76
2023/05/10 06:33:08;;;;;;;10.10;7.43;;;;;;;7.96;66.61;95247.97;5029378;28;20029;-76
2023/05/10 06:35:33;;;;;;;12.05;7.72;;;;;;;8.13;66.85;95245.38;5045634;28;20024;-75
2023/05/10 06:37:59;;;;;;;9.38;7.35;;;;;;;8.19;66.93;95252.72;5046231;28;20543;-76
2023/05/10 06:40:25;;;;;;;7.32;6.05;;;;;;;8.06;65.77;95248.25;5044738;28;20036;-75
2023/05/10 06:42:50;;;;;;;9.45;6.32;;;;;;;7.99;66.29;95262.81;5047302;28;20036;-75
2023/05/10 06:45:16;;;;;;;34.30;8.40;;;;;;;7.83;67.22;95255.19;5045168;28;20463;-75
2023/05/10 06:47:41;;;;;;;13.18;7.28;;;;;;;7.90;66.68;95257.81;5047331;28;20029;-75
2023/05/10 06:50:08;;;;;;;12.93;6.88;;;;;;;8.01;66.38;95257.69;5045009;28;20524;-75
2023/05/10 06:52:33;;;;;;;19.98;7.55;;;;;;;7.94;66.61;95253.09;5047558;28;20114;-77
2023/05/10 06:55:00;;;;;;;11.40;7.78;;;;;;;8.19;65.50;95258.19;5047023;28;20055;-76
2023/05/10 06:57:25;;;;;;;7.28;6.05;;;;;;;8.33;65.43;95261.94;5046591;28;20103;-75
2023/05/10 06:59:51;;;;;;;7.68;6.55;;;;;;;8.37;64.66;95258.00;5050320;28;20021;-76
2023/05/10 07:02:17;;;;;;;8.80;6.38;;;;;;;8.29;64.69;95263.94;5044507;28;20133;-76
2023/05/10 07:04:42;;;;;;;8.52;6.32;;;;;;;8.21;64.75;95266.78;5046196;28;20535;-76
2023/05/10 07:07:08;;;;;;;12.13;6.95;;;;;;;8.41;64.82;95261.44;5044665;28;20041;-76
2023/05/10 07:09:34;;;;;;;9.80;6.93;;;;;;;8.48;64.58;95260.53;5047684;28;20025;-76
2023/05/10 07:11:59;;;;;;;12.88;6.47;;;;;;;8.52;63.96;95266.75;5028170;28;20336;-76
2023/05/10 07:14:24;;;;;;;8.55;6.63;;;;;;;8.22;64.48;95262.09;5046519;28;20490;-76
2023/05/10 07:16:50;;;;;;;8.75;6.00;;;;;;;8.15;64.86;95267.69;5045521;28;20028;-77
2023/05/10 07:19:15;;;;;;;13.07;6.88;;;;;;;8.29;65.19;95266.69;5044437;28;20035;-75
2023/05/10 07:21:43;;;;;;;8.68;7.30;;;;;;;8.41;64.40;95272.38;5045554;28;20033;-76
2023/05/10 07:24:08;;;;;;;7.70;6.65;;;;;;;8.54;64.37;95271.81;5045702;28;20369;-77
2023/05/10 07:26:34;;;;;;;8.57;6.47;;;;;;;8.52;64.13;95274.97;5047182;28;20353;-75
2023/05/10 07:28:59;;;;;;;9.00;6.53;;;;;;;8.44;64.34;95259.84;5045429;28;20025;-76
2023/05/10 07:31:25;;;;;;;9.80;6.75;;;;;;;8.59;64.29;95274.09;5045942;28;20035;-76
2023/05/10 07:33:50;;;;;;;9.25;7.15;;;;;;;8.60;64.20;95265.47;5028107;28;20029;-78
2023/05/10 07:36:15;;;;;;;8.63;6.85;;;;;;;8.61;63.66;95275.22;5045994;28;20079;-75
2023/05/10 07:38:41;;;;;;;9.52;5.72;;;;;;;8.49;63.22;95279.31;5045467;28;20112;-75
2023/05/10 07:41:06;;;;;;;8.30;6.80;;;;;;;8.57;62.83;95273.72;5043562;28;20526;-78
2023/05/10 07:43:31;;;;;;;13.25;6.75;;;;;;;8.37;63.45;95279.09;5045021;28;20120;-78
2023/05/10 07:45:59;;;;;;;8.27;6.57;;;;;;;8.42;62.77;95301.34;5043579;28;20472;-77
2023/05/10 07:48:25;;;;;;;8.18;6.18;;;;;;;8.39;62.77;95274.78;5045701;28;20025;-76
2023/05/10 07:50:50;;;;;;;11.27;7.35;;;;;;;8.37;63.18;95274.44;5045807;28;20031;-76
2023/05/10 07:53:16;;;;;;;9.63;7.47;;;;;;;8.30;63.26;95293.66;5028468;28;20024;-76
2023/05/10 07:55:42;;;;;;;10.52;7.60;;;;;;;8.41;63.28;95279.84;5051564;28;20377;-76
2023/05/10 07:58:07;;;;;;;9.20;7.07;;;;;;;8.64;62.48;95285.34;5043395;28;20089;-76
2023/05/10 08:00:32;;;;;;;11.07;7.90;;;;;;;8.52;62.88;95285.94;5044740;28;20112;-76
2023/05/10 08:02:58;;;;;;;10.40;8.55;;;;;;;8.73;63.38;95284.84;5043489;28;20052;-76
2023/05/10 08:05:23;;;;;;;10.23;7.15;;;;;;;8.61;62.19;95285.41;5046304;28;20029;-76
2023/05/10 08:07:49;;;;;;;8.35;7.45;;;;;;;8.68;62.28;95282.56;5043770;28;20021;-75
2023/05/10 08:10:14;;;;;;;13.23;8.23;;;;;;;8.82;62.28;95282.31;5045305;28;20487;-76
2023/05/10 08:12:40;;;;;;;10.65;8.38;;;;;;;9.01;62.04;95283.59;5045519;28;20389;-75
2023/05/10 08:15:08;;;;;;;9.57;7.40;;;;;;;9.00;61.33;95292.97;5043621;28;20526;-75
2023/05/10 08:17:34;;;;;;;11.02;8.00;;;;;;;8.87;61.77;95284.59;5045416;28;20036;-75
2023/05/10 08:19:59;;;;;;;11.80;7.78;;;;;;;8.89;61.73;95274.00;5044251;28;20098;-76
2023/05/10 08:22:25;;;;;;;9.77;8.10;;;;;;;8.97;62.02;95285.59;5044532;28;20033;-76
2023/05/10 08:24:51;;;;;;;11.30;7.70;;;;;;;8.99;61.59;95274.97;5044472;28;20028;-76
2023/05/10 08:27:16;;;;;;;12.38;8.10;;;;;;;9.22;62.24;95288.69;5027662;28;20021;-75
2023/05/10 08:29:42;;;;;;;10.00;7.50;;;;;;;9.34;61.92;95281.81;5043634;28;20506;-77
2023/05/10 08:32:07;;;;;;;9.57;7.60;;;;;;;9.19;61.64;95294.25;5043919;28;20115;-76
2023/05/10 08:34:32;;;;;;;18.42;8.18;;;;;;;9.15;62.66;95288.81;5045403;28;20442;-76
2023/05/10 08:36:58;;;;;;;27.05;9.40;;;;;;;9.24;61.91;95285.53;5043337;28;20110;-75
2023/05/10 08:39:23;;;;;;;19.58;8.63;;;;;;;9.28;62.14;95294.47;5045689;28;20021;-76
2023/05/10 08:41:51;;;;;;;9.02;7.78;;;;;;;9.30;61.28;95284.63;5044309;28;20110;-76
2023/05/10 08:44:18;;;;;;;8.25;7.45;;;;;;;9.22;61.16;95280.44;5043937;28;20059;-75
2023/05/10 08:46:46;;;;;;;9.23;6.78;;;;;;;9.16;60.94;95295.84;5044298;28;20021;-76
2023/05/10 08:49:13;;;;;;;9.43;7.32;;;;;;;9.08;62.53;95282.69;5046303;28;20055;-74
2023/05/10 08:51:40;;;;;;;9.85;7.65;;;;;;;9.16;62.45;95295.84;5047212;28;20025;-76
2023/05/10 08:54:06;;;;;;;8.85;7.55;;;;;;;9.07;63.01;95283.88;5043124;28;20357;-76
2023/05/10 08:56:31;;;;;;;9.18;7.82;;;;;;;9.22;62.23;95280.44;5045520;28;20025;-75
2023/05/10 08:58:57;;;;;;;11.77;8.25;;;;;;;9.47;62.40;95285.50;5042753;28;20025;-75
2023/05/10 09:01:22;;;;;;;9.25;8.13;;;;;;;9.51;62.11;95283.44;5043980;28;20104;-76
2023/05/10 09:03:48;;;;;;;24.48;10.02;;;;;;;9.70;61.31;95286.63;5026087;28;20021;-76
2023/05/10 09:06:14;;;;;;;17.88;9.27;;;;;;;9.73;61.46;95289.28;5044106;28;20029;-75
2023/05/10 09:08:41;;;;;;;7.97;7.13;;;;;;;9.56;60.39;95274.72;5043049;28;20100;-76
2023/05/10 09:11:08;;;;;;;20.48;8.70;;;;;;;9.52;61.01;95289.72;5045702;28;20025;-75
2023/05/10 09:13:35;;;;;;;10.93;8.07;;;;;;;9.57;61.51;95283.72;5047744;28;20060;-76
2023/05/10 09:16:00;;;;;;;10.68;8.40;;;;;;;9.64;61.42;95288.31;5047728;28;20033;-76
2023/05/10 09:18:26;;;;;;;8.25;7.07;;;;;;;9.85;60.49;95285.91;5048796;28;20029;-75
2023/05/10 09:20:51;;;;;;;11.48;7.30;;;;;;;9.75;60.46;95281.41;5046433;28;20043;-76
2023/05/10 09:23:17;;;;;;;9.45;7.75;;;;;;;9.53;60.83;95291.25;5048764;28;20032;-76
2023/05/10 09:25:42;;;;;;;11.90;8.45;;;;;;;9.51;60.94;95288.91;5047793;28;20552;-75
2023/05/10 09:28:09;;;;;;;8.82;7.90;;;;;;;9.63;61.16;95278.50;5047710;28;20031;-75
2023/05/10 09:30:35;;;;;;;9.75;7.07;;;;;;;9.61;59.70;95283.66;5048601;28;20025;-75
2023/05/10 09:33:01;;;;;;;10.23;8.30;;;;;;;9.67;60.49;95290.22;5030700;28;20112;-75
2023/05/10 09:35:30;;;;;;;14.18;8.60;;;;;;;9.66;60.71;95292.19;5047319;28;20108;-75
2023/05/10 09:37:59;;;;;;;13.77;8.05;;;;;;;9.73;60.63;95292.03;5046158;28;20159;-77
2023/05/10 09:40:26;;;;;;;9.50;8.40;;;;;;;9.98;59.90;95282.53;5048554;28;20120;-76
2023/05/10 09:43:08;;;;;;;12.48;8.27;;;;;;;9.71;60.40;95266.22;5046394;28;20032;-76
2023/05/10 09:45:35;;;;;;;8.27;7.15;;;;;;;9.57;59.93;95289.97;5052399;28;20029;-77
2023/05/10 09:48:02;;;;;;;10.73;8.30;;;;;;;9.58;60.13;95282.53;5047353;28;20033;-76
2023/05/10 09:50:28;;;;;;;10.13;7.82;;;;;;;9.44;60.76;95282.81;5047914;28;20028;-77
2023/05/10 09:53:03;;;;;;;9.65;7.82;;;;;;;9.62;60.29;95283.22;5048703;28;20033;-76
2023/05/10 09:55:40;;;;;;;10.07;7.90;;;;;;;9.93;60.56;95278.31;5047577;28;20033;-75
2023/05/10 09:58:10;;;;;;;8.65;7.18;;;;;;;10.03;58.62;95271.78;5047559;28;20028;-76
2023/05/10 10:00:37;;;;;;;9.75;6.75;;;;;;;9.56;60.09;95268.44;5045920;28;20492;-76
2023/05/10 10:03:03;;;;;;;10.18;8.40;;;;;;;9.72;60.03;95262.25;5046854;28;20065;-76
2023/05/10 10:05:32;;;;;;;10.57;8.00;;;;;;;9.93;59.53;95261.06;5029643;28;20025;-75
2023/05/10 10:07:59;;;;;;;11.43;8.70;;;;;;;10.00;58.79;95264.41;5046960;28;20480;-77
2023/05/10 10:10:27;;;;;;;10.63;7.88;;;;;;;10.00;58.92;95264.41;5046574;28;20028;-76
2023/05/10 10:12:53;;;;;;;8.38;7.53;;;;;;;9.97;58.84;95254.28;5045547;28;20146;-75
2023/05/10 10:15:20;;;;;;;10.68;8.18;;;;;;;10.08;59.01;95254.03;5046502;28;20105;-75
2023/05/10 10:17:46;;;;;;;8.25;7.30;;;;;;;9.90;58.89;95264.63;5028677;28;20025;-77
2023/05/10 10:20:12;;;;;;;10.07;7.20;;;;;;;9.60;59.97;95246.44;5046702;28;20021;-76
2023/05/10 10:22:37;;;;;;;9.80;8.05;;;;;;;9.96;59.51;95254.69;5029596;28;20029;-76
2023/05/10 10:25:04;;;;;;;8.55;7.70;;;;;;;10.08;58.69;95254.03;5045652;28;20029;-76
2023/05/10 10:27:52;;;;;;;9.73;8.05;;;;;;;10.20;58.40;95247.13;5047819;28;20025;-76
2023/05/10 10:30:31;;;;;;;8.55;7.28;;;;;;;10.01;58.83;95251.47;5046559;28;20033;-76
2023/05/10 10:33:03;;;;;;;7.68;6.88;;;;;;;10.05;58.46;95252.94;5046509;28;20033;-76
2023/05/10 10:35:32;;;;;;;11.18;7.93;;;;;;;10.18;58.76;95258.53;5047094;28;20029;-76
2023/05/10 10:37:57;;;;;;;8.57;7.40;;;;;;;9.94;58.58;95252.38;5045645;28;20025;-77
2023/05/10 10:40:26;;;;;;;9.90;7.68;;;;;;;10.13;59.21;95248.03;5054868;28;20027;-75
2023/05/10 10:42:53;;;;;;;8.90;7.53;;;;;;;10.29;58.51;95256.34;5046470;28;20475;-77
2023/05/10 10:45:19;;;;;;;13.80;7.22;;;;;;;10.44;58.33;95253.28;5046227;28;20428;-76
2023/05/10 10:47:45;;;;;;;10.48;7.63;;;;;;;10.59;58.07;95259.97;5044998;28;20036;-77
2023/05/10 10:50:12;;;;;;;8.73;7.78;;;;;;;10.80;58.23;95255.97;5046831;28;20029;-76
2023/05/10 10:52:41;;;;;;;8.98;6.28;;;;;;;10.94;56.52;95263.84;5046537;28;20503;-79
2023/05/10 10:55:08;;;;;;;8.90;6.30;;;;;;;10.90;56.47;95258.44;5045858;28;20025;-76
2023/05/10 10:57:46;;;;;;;8.32;6.63;;;;;;;10.85;56.84;95269.19;5047094;28;20032;-76
2023/05/10 11:00:21;;;;;;;23.33;7.90;;;;;;;10.39;57.58;95264.78;5046377;28;20476;-76
2023/05/10 11:03:08;;;;;;;8.85;6.70;;;;;;;10.55;57.52;95264.78;5047302;28;20123;-77
2023/05/10 11:06:01;;;;;;;13.80;6.78;;;;;;;10.32;57.72;95255.50;5046856;28;20048;-76
2023/05/10 11:08:30;;;;;;;9.93;6.43;;;;;;;10.18;58.21;95260.50;5046222;28;20122;-77
2023/05/10 11:10:59;;;;;;;8.15;5.80;;;;;;;10.26;57.63;95265.44;5046336;28;20098;-76
2023/05/10 11:13:32;;;;;;;8.18;6.10;;;;;;;10.01;58.50;95254.19;5046284;28;20049;-75
2023/05/10 11:15:59;;;;;;;7.18;6.25;;;;;;;10.10;58.11;95254.41;5046135;28;20032;-76
2023/05/10 11:18:27;;;;;;;10.13;6.30;;;;;;;10.12;58.49;95243.75;5045010;28;20078;-76
2023/05/10 11:21:03;;;;;;;8.38;6.53;;;;;;;10.37;57.91;95252.22;5046719;28;20025;-76
2023/05/10 11:23:32;;;;;;;8.73;6.55;;;;;;;10.46;57.84;95251.66;5045674;28;20036;-76
2023/05/10 11:25:57;;;;;;;9.52;6.35;;;;;;;10.61;57.18;95254.84;5044970;28;20392;-76
2023/05/10 11:28:23;;;;;;;6.63;5.93;;;;;;;10.74;57.47;95252.94;5029426;28;20032;-76
2023/05/10 11:30:48;;;;;;;8.27;6.07;;;;;;;10.87;56.95;95253.03;5045347;28;20040;-76
2023/05/10 11:33:19;;;;;;;8.52;6.60;;;;;;;11.04;56.61;95246.31;5046238;28;20085;-76
2023/05/10 11:35:45;;;;;;;8.35;5.93;;;;;;;11.16;56.49;95250.31;5051166;28;20113;-77
2023/05/10 11:38:11;;;;;;;7.25;5.90;;;;;;;10.92;55.71;95252.50;5049840;28;20410;-76
2023/05/10 11:40:37;;;;;;;7.93;5.97;;;;;;;10.68;56.86;95246.44;5044919;28;20056;-76